METAR stanice u blizini

 

LYBE - Beograd / Surčin, Srbija
Ažurirano: 10/08/2020 20:30
Vedro
Vedro
 Pravac vetra J
Vetar: J 4 km/h
Temperatura: 26°C
Tačka rose: 21°C
Vlažnost: 74%
Pritisak: 1015 hPa
Pregled: Vedro
Vidljivost: greater than 10 km
2020/08/10 18:30 LYBE 101830Z 17002KT CAVOK 26/21 Q1015 NOSIG
LYBT - Beograd / Batajnica, Srbija
Ažurirano: 10/08/2020 20:30
Vedro
Vedro
 Pravac vetra JI
Vetar: JI 4 km/h
Temperatura: 24°C
Tačka rose: 20°C
Vlažnost: 78%
Pritisak: 1014 hPa
Pregled: Vedro
Vidljivost: greater than 10 km
2020/08/10 18:30 LYBT 101830Z 14002KT CAVOK 24/20 Q1014 NOSIG
LYVR - Vršac, Srbija
Ažurirano: 10/08/2020 20:30
Padavine, Delimično oblačno
Padavine, Delimično oblačno
 Pravac vetra varies
Vetar: varies 2 km/h
Temperatura: 22°C
Tačka rose: 18°C
Vlažnost: 78%
Pritisak: 1015 hPa
Pregled: Padavine
Oblaci: Partly Cloudy
Vidljivost: 8 km
2020/08/10 18:30 LYVR 101830Z AUTO VRB01KT 8000 RA NSC 22/18 Q1015
 
LYKV - Lađevci, Srbija
Ažurirano: 10/08/2020 20:30
Partly Cloudy
Partly Cloudy
 Pravac vetra varies
Vetar: varies 4 km/h
Temperatura: 26°C
Tačka rose: 23°C
Vlažnost: 84%
Pritisak: 1015 hPa
Oblaci: Partly Cloudy
Vidljivost: 10 km
Cloud details: Partly Cloudy 1219 m
2020/08/10 18:30 LYKV 101830Z VRB02KT 9999 SCT040 26/23 Q1015 NOSIG
LYNI - Niš, Srbija
Ažurirano: 10/08/2020 20:30
Vedro
Vedro
 Pravac vetra varies
Vetar: varies 2 km/h
Temperatura: 24°C
Tačka rose: 18°C
Vlažnost: 69%
Pritisak: 1015 hPa
Pregled: Vedro
Vidljivost: greater than 10 km
2020/08/10 18:30 LYNI 101830Z VRB01KT CAVOK 24/18 Q1015 NOSIG
BKPR - Priština, Srbija
Ažurirano: 10/08/2020 20:30
Vedro
Vedro
 Pravac vetra varies
Vetar: varies 4 km/h
Temperatura: 23°C
Tačka rose: 15°C
Vlažnost: 61%
Pritisak: 1017 hPa
Pregled: Vedro
Vidljivost: greater than 10 km
2020/08/10 18:30 BKPR 101830Z VRB02KT CAVOK 23/15 Q1017 NOSIG
 
LHPP - Pecs / Pogany, Hungary
Ažurirano: 10/08/2020 19:45
Vedro
Vedro
 Pravac vetra SSI
Vetar: SSI 9 km/h
Temperatura: 26°C
Tačka rose: 19°C
Vlažnost: 65%
Pritisak: 1015 hPa
Pregled: Vedro
Vidljivost: greater than 10 km
2020/08/10 17:45 LHPP 101745Z 02005KT CAVOK 26/19 Q1015
LHUD - Szeged, Hungary
Ažurirano: 04/07/2019 01:45
NOT Current
Vedro
Vedro
 Pravac vetra S
Vetar: S 7 km/h
Temperatura: 18°C
Tačka rose: 13°C
Vlažnost: 73%
Pritisak: 1019 hPa
Pregled: Vedro
Vidljivost: greater than 10 km
2019/07/03 23:45 LHUD 032345Z 35004KT CAVOK 18/13 Q1019
LRTR - Timisoara, Romania
Ažurirano: 10/08/2020 20:30
Vedro
Vedro
 Pravac vetra SI
Vetar: SI 11 km/h
Temperatura: 25°C
Tačka rose: 17°C
Vlažnost: 61%
Pritisak: 1014 hPa
Pregled: Vedro
Vidljivost: greater than 10 km
2020/08/10 18:30 LRTR 101830Z 05006KT CAVOK 25/17 Q1014 NOSIG
 
LRCV - Craiova, Romania
Ažurirano: 10/08/2020 20:30
Vedro
Vedro
 Pravac vetra I
Vetar: I 11 km/h
Temperatura: 24°C
Tačka rose: 15°C
Vlažnost: 57%
Pritisak: 1015 hPa
Pregled: Vedro
Vidljivost: greater than 10 km
2020/08/10 18:30 LRCV 101830Z 10006KT CAVOK 24/15 Q1015
LBSF - Sofia, Bulgaria
Ažurirano: 10/08/2020 20:30
Vedro
Vedro
 Pravac vetra varies
Vetar: varies 4 km/h
Temperatura: 22°C
Tačka rose: 14°C
Vlažnost: 61%
Pritisak: 1017 hPa
Pregled: Vedro
Vidljivost: greater than 10 km
2020/08/10 18:30 LBSF 101830Z VRB02KT CAVOK 22/14 Q1017 NOSIG
LWSK - Skoplje, Makedonija
Ažurirano: 10/08/2020 20:30
Few Clouds
Few Clouds
 Pravac vetra SSI
Vetar: SSI 11 km/h
Temperatura: 26°C
Tačka rose: 17°C
Vlažnost: 58%
Pritisak: 1015 hPa
Oblaci: Few Clouds
Vidljivost: 10 km
Cloud details: Few Clouds 1829 m
2020/08/10 18:30 LWSK 101830Z 03006KT 9999 FEW060 26/17 Q1015 NOSIG
 
LYPG - Podgorica, Crna Gora
Ažurirano: 10/08/2020 20:30
Few Clouds
Few Clouds
 Pravac vetra SZ
Vetar: SZ 7 km/h
Temperatura: 28°C
Heat Index: 28°C
Tačka rose: 16°C
Vlažnost: 48%
Pritisak: 1013 hPa
Oblaci: Few Clouds
Vidljivost: 10 km
Cloud details: Few Clouds 3048 m
2020/08/10 18:30 LYPG 101830Z 32004KT 9999 FEW100 28/16 Q1013 NOSIG
LQSA - Sarajevo, Bosna i Hercegovina
Ažurirano: 10/08/2020 20:30
Vedro
Vedro
 Pravac vetra Z
Vetar: Z 7 km/h
Temperatura: 22°C
Tačka rose: 17°C
Vlažnost: 73%
Pritisak: 1017 hPa
Pregled: Vedro
Vidljivost: greater than 10 km
2020/08/10 18:30 LQSA 101830Z 28004KT CAVOK 22/17 Q1017 NOSIG
LDOS - Osijek, Hrvatksa
Ažurirano: 10/08/2020 20:30
Vedro
Vedro
 Pravac vetra calm
Vetar: Tišina
Temperatura: 26°C
Tačka rose: 20°C
Vlažnost: 70%
Pritisak: 1014 hPa
Pregled: Vedro
Vidljivost: greater than 10 km
2020/08/10 18:30 LDOS 101830Z 00000KT CAVOK 26/20 Q1014